sensor_id;sensor_type;location;lat;lon;timestamp;P1;durP1;ratioP1;P2;durP2;ratioP2
18190;SDS011;47004;51.366;12.348;2023-03-13T00:01:17;10.27;;;3.70;;
18190;SDS011;47004;51.366;12.348;2023-03-13T00:03:20;16.60;;;3.73;;
18190;SDS011;47004;51.366;12.348;2023-03-13T00:05:22;12.50;;;3.43;;
18190;SDS011;47004;51.366;12.348;2023-03-13T00:07:25;14.37;;;3.90;;
18190;SDS011;47004;51.366;12.348;2023-03-13T00:09:27;7.57;;;3.63;;
18190;SDS011;47004;51.366;12.348;2023-03-13T00:11:30;11.00;;;3.57;;
18190;SDS011;47004;51.366;12.348;2023-03-13T00:13:32;13.20;;;3.47;;
18190;SDS011;47004;51.366;12.348;2023-03-13T00:15:34;10.43;;;3.50;;
18190;SDS011;47004;51.366;12.348;2023-03-13T00:17:36;10.67;;;3.60;;
18190;SDS011;47004;51.366;12.348;2023-03-13T00:19:38;12.43;;;4.20;;
18190;SDS011;47004;51.366;12.348;2023-03-13T00:21:40;14.40;;;4.13;;
18190;SDS011;47004;51.366;12.348;2023-03-13T00:23:46;11.03;;;3.57;;
18190;SDS011;47004;51.366;12.348;2023-03-13T00:25:54;11.33;;;4.03;;
18190;SDS011;47004;51.366;12.348;2023-03-13T00:27:56;10.47;;;3.53;;
18190;SDS011;47004;51.366;12.348;2023-03-13T00:29:58;8.43;;;3.53;;
18190;SDS011;47004;51.366;12.348;2023-03-13T00:32:00;10.17;;;3.40;;
18190;SDS011;47004;51.366;12.348;2023-03-13T00:34:02;8.10;;;3.50;;
18190;SDS011;47004;51.366;12.348;2023-03-13T00:36:05;13.67;;;4.07;;
18190;SDS011;47004;51.366;12.348;2023-03-13T00:38:08;10.00;;;3.50;;
18190;SDS011;47004;51.366;12.348;2023-03-13T00:40:12;11.77;;;4.37;;
18190;SDS011;47004;51.366;12.348;2023-03-13T00:42:14;14.47;;;4.33;;
18190;SDS011;47004;51.366;12.348;2023-03-13T00:44:16;11.43;;;3.63;;
18190;SDS011;47004;51.366;12.348;2023-03-13T00:46:18;9.23;;;3.77;;
18190;SDS011;47004;51.366;12.348;2023-03-13T00:48:22;15.20;;;4.00;;
18190;SDS011;47004;51.366;12.348;2023-03-13T00:50:24;13.30;;;3.47;;
18190;SDS011;47004;51.366;12.348;2023-03-13T00:52:26;11.73;;;3.60;;
18190;SDS011;47004;51.366;12.348;2023-03-13T00:54:28;11.27;;;3.70;;
18190;SDS011;47004;51.366;12.348;2023-03-13T00:56:31;15.60;;;4.00;;
18190;SDS011;47004;51.366;12.348;2023-03-13T00:58:34;13.63;;;3.70;;
18190;SDS011;47004;51.366;12.348;2023-03-13T01:00:36;10.37;;;3.47;;
18190;SDS011;47004;51.366;12.348;2023-03-13T01:02:40;20.03;;;4.80;;
18190;SDS011;47004;51.366;12.348;2023-03-13T01:04:44;13.10;;;3.90;;
18190;SDS011;47004;51.366;12.348;2023-03-13T01:06:46;19.10;;;4.33;;
18190;SDS011;47004;51.366;12.348;2023-03-13T01:08:48;17.70;;;4.50;;
18190;SDS011;47004;51.366;12.348;2023-03-13T01:10:50;12.53;;;3.87;;
18190;SDS011;47004;51.366;12.348;2023-03-13T01:12:59;15.83;;;4.23;;
18190;SDS011;47004;51.366;12.348;2023-03-13T01:15:04;16.03;;;3.60;;
18190;SDS011;47004;51.366;12.348;2023-03-13T01:17:06;13.50;;;4.00;;
18190;SDS011;47004;51.366;12.348;2023-03-13T01:19:09;15.90;;;4.10;;
18190;SDS011;47004;51.366;12.348;2023-03-13T01:21:12;15.33;;;3.53;;
18190;SDS011;47004;51.366;12.348;2023-03-13T01:23:15;14.07;;;3.97;;
18190;SDS011;47004;51.366;12.348;2023-03-13T01:25:17;13.50;;;3.63;;
18190;SDS011;47004;51.366;12.348;2023-03-13T01:27:19;11.47;;;3.13;;
18190;SDS011;47004;51.366;12.348;2023-03-13T01:29:22;12.10;;;3.33;;
18190;SDS011;47004;51.366;12.348;2023-03-13T01:31:25;9.80;;;3.53;;
18190;SDS011;47004;51.366;12.348;2023-03-13T01:33:28;8.63;;;3.27;;
18190;SDS011;47004;51.366;12.348;2023-03-13T01:35:30;23.50;;;3.83;;
18190;SDS011;47004;51.366;12.348;2023-03-13T01:37:32;12.47;;;3.73;;
18190;SDS011;47004;51.366;12.348;2023-03-13T01:39:34;17.07;;;3.10;;
18190;SDS011;47004;51.366;12.348;2023-03-13T01:41:36;14.13;;;3.37;;
18190;SDS011;47004;51.366;12.348;2023-03-13T01:43:38;11.33;;;2.87;;
18190;SDS011;47004;51.366;12.348;2023-03-13T01:45:55;15.53;;;3.30;;
18190;SDS011;47004;51.366;12.348;2023-03-13T01:47:59;8.70;;;2.97;;
18190;SDS011;47004;51.366;12.348;2023-03-13T01:50:01;12.77;;;3.43;;
18190;SDS011;47004;51.366;12.348;2023-03-13T01:52:03;13.47;;;3.00;;
18190;SDS011;47004;51.366;12.348;2023-03-13T01:54:09;13.50;;;3.37;;
18190;SDS011;47004;51.366;12.348;2023-03-13T01:56:14;14.67;;;2.60;;
18190;SDS011;47004;51.366;12.348;2023-03-13T01:58:20;11.47;;;2.83;;
18190;SDS011;47004;51.366;12.348;2023-03-13T02:00:22;18.27;;;3.37;;
18190;SDS011;47004;51.366;12.348;2023-03-13T02:02:28;15.77;;;3.20;;
18190;SDS011;47004;51.366;12.348;2023-03-13T02:04:33;13.93;;;3.10;;
18190;SDS011;47004;51.366;12.348;2023-03-13T02:06:38;9.83;;;2.63;;
18190;SDS011;47004;51.366;12.348;2023-03-13T02:08:46;11.17;;;2.67;;
18190;SDS011;47004;51.366;12.348;2023-03-13T02:10:55;15.63;;;3.17;;
18190;SDS011;47004;51.366;12.348;2023-03-13T02:13:04;16.57;;;3.43;;
18190;SDS011;47004;51.366;12.348;2023-03-13T02:15:07;12.80;;;2.77;;
18190;SDS011;47004;51.366;12.348;2023-03-13T02:17:12;16.23;;;3.33;;
18190;SDS011;47004;51.366;12.348;2023-03-13T02:19:17;21.00;;;4.30;;
18190;SDS011;47004;51.366;12.348;2023-03-13T02:21:29;14.60;;;4.03;;
18190;SDS011;47004;51.366;12.348;2023-03-13T02:23:38;14.40;;;3.17;;
18190;SDS011;47004;51.366;12.348;2023-03-13T02:25:45;9.97;;;3.00;;
18190;SDS011;47004;51.366;12.348;2023-03-13T02:27:48;15.80;;;2.93;;
18190;SDS011;47004;51.366;12.348;2023-03-13T02:29:52;17.67;;;3.53;;
18190;SDS011;47004;51.366;12.348;2023-03-13T02:31:54;16.67;;;3.03;;
18190;SDS011;47004;51.366;12.348;2023-03-13T02:33:57;15.47;;;3.60;;
18190;SDS011;47004;51.366;12.348;2023-03-13T02:36:04;12.53;;;2.53;;
18190;SDS011;47004;51.366;12.348;2023-03-13T02:38:07;22.70;;;3.27;;
18190;SDS011;47004;51.366;12.348;2023-03-13T02:40:13;12.43;;;3.20;;
18190;SDS011;47004;51.366;12.348;2023-03-13T02:42:19;15.83;;;3.20;;
18190;SDS011;47004;51.366;12.348;2023-03-13T02:44:23;18.77;;;4.37;;
18190;SDS011;47004;51.366;12.348;2023-03-13T02:46:25;21.40;;;3.30;;
18190;SDS011;47004;51.366;12.348;2023-03-13T02:48:30;17.47;;;3.10;;
18190;SDS011;47004;51.366;12.348;2023-03-13T02:50:33;15.90;;;3.17;;
18190;SDS011;47004;51.366;12.348;2023-03-13T02:52:40;14.97;;;2.97;;
18190;SDS011;47004;51.366;12.348;2023-03-13T02:54:46;16.67;;;3.77;;
18190;SDS011;47004;51.366;12.348;2023-03-13T02:56:53;15.73;;;2.80;;
18190;SDS011;47004;51.366;12.348;2023-03-13T02:58:59;11.93;;;3.00;;
18190;SDS011;47004;51.366;12.348;2023-03-13T03:01:01;21.50;;;3.50;;
18190;SDS011;47004;51.366;12.348;2023-03-13T03:03:06;17.20;;;3.73;;
18190;SDS011;47004;51.366;12.348;2023-03-13T03:05:08;14.33;;;3.47;;
18190;SDS011;47004;51.366;12.348;2023-03-13T03:07:11;12.77;;;2.90;;
18190;SDS011;47004;51.366;12.348;2023-03-13T03:09:12;16.60;;;2.90;;
18190;SDS011;47004;51.366;12.348;2023-03-13T03:11:15;16.20;;;3.10;;
18190;SDS011;47004;51.366;12.348;2023-03-13T03:13:17;18.07;;;3.27;;
18190;SDS011;47004;51.366;12.348;2023-03-13T03:15:20;15.13;;;3.10;;
18190;SDS011;47004;51.366;12.348;2023-03-13T03:17:22;14.40;;;3.23;;
18190;SDS011;47004;51.366;12.348;2023-03-13T03:19:24;12.50;;;2.67;;
18190;SDS011;47004;51.366;12.348;2023-03-13T03:21:26;19.80;;;3.37;;
18190;SDS011;47004;51.366;12.348;2023-03-13T03:23:28;13.70;;;3.13;;
18190;SDS011;47004;51.366;12.348;2023-03-13T03:25:30;14.83;;;3.40;;
18190;SDS011;47004;51.366;12.348;2023-03-13T03:27:32;11.03;;;2.33;;
18190;SDS011;47004;51.366;12.348;2023-03-13T03:29:34;12.17;;;3.00;;
18190;SDS011;47004;51.366;12.348;2023-03-13T03:31:37;11.07;;;2.80;;
18190;SDS011;47004;51.366;12.348;2023-03-13T03:33:39;13.47;;;3.00;;
18190;SDS011;47004;51.366;12.348;2023-03-13T03:35:41;10.70;;;3.10;;
18190;SDS011;47004;51.366;12.348;2023-03-13T03:37:43;16.87;;;3.20;;
18190;SDS011;47004;51.366;12.348;2023-03-13T03:39:45;18.67;;;2.80;;
18190;SDS011;47004;51.366;12.348;2023-03-13T03:41:47;15.27;;;2.70;;
18190;SDS011;47004;51.366;12.348;2023-03-13T03:43:49;13.27;;;2.67;;
18190;SDS011;47004;51.366;12.348;2023-03-13T03:45:51;17.30;;;3.77;;
18190;SDS011;47004;51.366;12.348;2023-03-13T03:47:54;14.93;;;3.40;;
18190;SDS011;47004;51.366;12.348;2023-03-13T03:49:58;13.90;;;2.93;;
18190;SDS011;47004;51.366;12.348;2023-03-13T03:52:02;14.87;;;3.07;;
18190;SDS011;47004;51.366;12.348;2023-03-13T03:54:04;9.17;;;2.00;;
18190;SDS011;47004;51.366;12.348;2023-03-13T03:56:07;16.83;;;3.07;;
18190;SDS011;47004;51.366;12.348;2023-03-13T03:58:09;18.40;;;3.33;;
18190;SDS011;47004;51.366;12.348;2023-03-13T04:00:11;12.93;;;2.43;;
18190;SDS011;47004;51.366;12.348;2023-03-13T04:02:15;13.70;;;2.73;;
18190;SDS011;47004;51.366;12.348;2023-03-13T04:04:18;12.13;;;2.33;;
18190;SDS011;47004;51.366;12.348;2023-03-13T04:06:20;18.63;;;3.27;;
18190;SDS011;47004;51.366;12.348;2023-03-13T04:08:22;19.63;;;3.30;;
18190;SDS011;47004;51.366;12.348;2023-03-13T04:10:24;15.03;;;3.10;;
18190;SDS011;47004;51.366;12.348;2023-03-13T04:12:26;10.03;;;2.17;;
18190;SDS011;47004;51.366;12.348;2023-03-13T04:14:29;18.33;;;3.30;;
18190;SDS011;47004;51.366;12.348;2023-03-13T04:16:31;12.07;;;2.60;;
18190;SDS011;47004;51.366;12.348;2023-03-13T04:18:33;20.23;;;3.17;;
18190;SDS011;47004;51.366;12.348;2023-03-13T04:20:36;17.43;;;2.63;;
18190;SDS011;47004;51.366;12.348;2023-03-13T04:22:38;15.10;;;2.80;;
18190;SDS011;47004;51.366;12.348;2023-03-13T04:24:41;16.87;;;3.63;;
18190;SDS011;47004;51.366;12.348;2023-03-13T04:26:43;13.40;;;3.50;;
18190;SDS011;47004;51.366;12.348;2023-03-13T04:28:44;11.67;;;3.10;;
18190;SDS011;47004;51.366;12.348;2023-03-13T04:30:46;15.17;;;3.60;;
18190;SDS011;47004;51.366;12.348;2023-03-13T04:32:48;19.20;;;2.73;;
18190;SDS011;47004;51.366;12.348;2023-03-13T04:34:51;13.50;;;2.90;;
18190;SDS011;47004;51.366;12.348;2023-03-13T04:36:54;13.87;;;2.67;;
18190;SDS011;47004;51.366;12.348;2023-03-13T04:38:58;13.73;;;2.70;;
18190;SDS011;47004;51.366;12.348;2023-03-13T04:41:00;9.50;;;2.30;;
18190;SDS011;47004;51.366;12.348;2023-03-13T04:43:02;14.27;;;2.53;;
18190;SDS011;47004;51.366;12.348;2023-03-13T04:45:04;12.33;;;2.60;;
18190;SDS011;47004;51.366;12.348;2023-03-13T04:47:09;14.53;;;2.70;;
18190;SDS011;47004;51.366;12.348;2023-03-13T04:49:11;10.50;;;2.80;;
18190;SDS011;47004;51.366;12.348;2023-03-13T04:51:13;18.43;;;3.33;;
18190;SDS011;47004;51.366;12.348;2023-03-13T04:53:17;15.93;;;2.97;;
18190;SDS011;47004;51.366;12.348;2023-03-13T04:55:19;18.63;;;2.77;;
18190;SDS011;47004;51.366;12.348;2023-03-13T04:57:21;13.43;;;2.90;;
18190;SDS011;47004;51.366;12.348;2023-03-13T04:59:22;15.77;;;2.87;;
18190;SDS011;47004;51.366;12.348;2023-03-13T05:01:24;15.93;;;2.70;;
18190;SDS011;47004;51.366;12.348;2023-03-13T05:03:26;22.70;;;3.00;;
18190;SDS011;47004;51.366;12.348;2023-03-13T05:05:28;14.77;;;2.97;;
18190;SDS011;47004;51.366;12.348;2023-03-13T05:07:30;11.33;;;2.33;;
18190;SDS011;47004;51.366;12.348;2023-03-13T05:09:33;13.50;;;3.00;;
18190;SDS011;47004;51.366;12.348;2023-03-13T05:11:35;17.33;;;2.67;;
18190;SDS011;47004;51.366;12.348;2023-03-13T05:13:37;18.17;;;3.60;;
18190;SDS011;47004;51.366;12.348;2023-03-13T05:15:39;15.30;;;3.27;;
18190;SDS011;47004;51.366;12.348;2023-03-13T05:17:41;24.07;;;3.67;;
18190;SDS011;47004;51.366;12.348;2023-03-13T05:19:43;9.47;;;2.23;;
18190;SDS011;47004;51.366;12.348;2023-03-13T05:21:45;13.77;;;3.00;;
18190;SDS011;47004;51.366;12.348;2023-03-13T05:23:46;16.97;;;2.93;;
18190;SDS011;47004;51.366;12.348;2023-03-13T05:25:50;11.97;;;2.30;;
18190;SDS011;47004;51.366;12.348;2023-03-13T05:27:52;14.33;;;2.90;;
18190;SDS011;47004;51.366;12.348;2023-03-13T05:29:54;9.23;;;2.53;;
18190;SDS011;47004;51.366;12.348;2023-03-13T05:31:58;15.43;;;3.27;;
18190;SDS011;47004;51.366;12.348;2023-03-13T05:33:59;9.97;;;2.60;;
18190;SDS011;47004;51.366;12.348;2023-03-13T05:36:01;16.47;;;3.13;;
18190;SDS011;47004;51.366;12.348;2023-03-13T05:38:04;16.60;;;3.47;;
18190;SDS011;47004;51.366;12.348;2023-03-13T05:40:06;15.43;;;2.73;;
18190;SDS011;47004;51.366;12.348;2023-03-13T05:42:13;13.50;;;2.53;;
18190;SDS011;47004;51.366;12.348;2023-03-13T05:44:15;10.30;;;2.27;;
18190;SDS011;47004;51.366;12.348;2023-03-13T05:46:17;12.17;;;2.67;;
18190;SDS011;47004;51.366;12.348;2023-03-13T05:48:19;12.63;;;2.80;;
18190;SDS011;47004;51.366;12.348;2023-03-13T05:50:21;14.40;;;2.63;;
18190;SDS011;47004;51.366;12.348;2023-03-13T05:52:23;13.90;;;2.70;;
18190;SDS011;47004;51.366;12.348;2023-03-13T05:54:25;17.00;;;2.80;;
18190;SDS011;47004;51.366;12.348;2023-03-13T05:56:26;13.10;;;2.70;;
18190;SDS011;47004;51.366;12.348;2023-03-13T05:58:30;9.70;;;2.60;;
18190;SDS011;47004;51.366;12.348;2023-03-13T06:00:32;14.27;;;2.50;;
18190;SDS011;47004;51.366;12.348;2023-03-13T06:02:34;16.30;;;2.87;;
18190;SDS011;47004;51.366;12.348;2023-03-13T06:04:36;14.17;;;3.00;;
18190;SDS011;47004;51.366;12.348;2023-03-13T06:06:38;15.83;;;2.80;;
18190;SDS011;47004;51.366;12.348;2023-03-13T06:08:40;15.70;;;2.80;;
18190;SDS011;47004;51.366;12.348;2023-03-13T06:10:48;13.80;;;2.43;;
18190;SDS011;47004;51.366;12.348;2023-03-13T06:12:53;11.03;;;2.40;;
18190;SDS011;47004;51.366;12.348;2023-03-13T06:14:56;10.90;;;1.90;;
18190;SDS011;47004;51.366;12.348;2023-03-13T06:16:58;8.87;;;2.30;;
18190;SDS011;47004;51.366;12.348;2023-03-13T06:19:00;14.53;;;2.87;;
18190;SDS011;47004;51.366;12.348;2023-03-13T06:21:11;15.70;;;2.87;;
18190;SDS011;47004;51.366;12.348;2023-03-13T06:23:13;12.43;;;2.40;;
18190;SDS011;47004;51.366;12.348;2023-03-13T06:25:14;12.57;;;2.77;;
18190;SDS011;47004;51.366;12.348;2023-03-13T06:27:16;13.27;;;2.67;;
18190;SDS011;47004;51.366;12.348;2023-03-13T06:29:18;14.57;;;3.10;;
18190;SDS011;47004;51.366;12.348;2023-03-13T06:31:22;10.53;;;2.63;;
18190;SDS011;47004;51.366;12.348;2023-03-13T06:33:23;13.37;;;2.60;;
18190;SDS011;47004;51.366;12.348;2023-03-13T06:35:26;16.37;;;2.93;;
18190;SDS011;47004;51.366;12.348;2023-03-13T06:37:27;15.10;;;2.60;;
18190;SDS011;47004;51.366;12.348;2023-03-13T06:39:29;13.50;;;2.90;;
18190;SDS011;47004;51.366;12.348;2023-03-13T06:41:31;11.83;;;2.73;;
18190;SDS011;47004;51.366;12.348;2023-03-13T06:43:33;7.93;;;2.27;;
18190;SDS011;47004;51.366;12.348;2023-03-13T06:45:35;17.97;;;2.87;;
18190;SDS011;47004;51.366;12.348;2023-03-13T06:47:38;9.60;;;1.90;;
18190;SDS011;47004;51.366;12.348;2023-03-13T06:49:43;10.53;;;2.40;;
18190;SDS011;47004;51.366;12.348;2023-03-13T06:51:45;16.23;;;3.47;;
18190;SDS011;47004;51.366;12.348;2023-03-13T06:53:47;16.23;;;2.77;;
18190;SDS011;47004;51.366;12.348;2023-03-13T06:55:51;15.80;;;4.40;;
18190;SDS011;47004;51.366;12.348;2023-03-13T06:57:53;18.43;;;2.90;;
18190;SDS011;47004;51.366;12.348;2023-03-13T06:59:55;13.57;;;2.60;;
18190;SDS011;47004;51.366;12.348;2023-03-13T07:01:57;9.23;;;2.50;;
18190;SDS011;47004;51.366;12.348;2023-03-13T07:04:00;9.93;;;2.17;;
18190;SDS011;47004;51.366;12.348;2023-03-13T07:06:02;16.40;;;2.77;;
18190;SDS011;47004;51.366;12.348;2023-03-13T07:08:05;9.03;;;2.60;;
18190;SDS011;47004;51.366;12.348;2023-03-13T07:10:09;10.07;;;2.27;;
18190;SDS011;47004;51.366;12.348;2023-03-13T07:12:12;11.00;;;2.70;;
18190;SDS011;47004;51.366;12.348;2023-03-13T07:14:14;10.13;;;2.33;;
18190;SDS011;47004;51.366;12.348;2023-03-13T07:16:16;15.00;;;2.13;;
18190;SDS011;47004;51.366;12.348;2023-03-13T07:18:18;12.97;;;2.70;;
18190;SDS011;47004;51.366;12.348;2023-03-13T07:20:21;9.57;;;2.50;;
18190;SDS011;47004;51.366;12.348;2023-03-13T07:22:25;10.67;;;2.03;;
18190;SDS011;47004;51.366;12.348;2023-03-13T07:24:27;11.97;;;2.23;;
18190;SDS011;47004;51.366;12.348;2023-03-13T07:26:30;6.47;;;2.17;;
18190;SDS011;47004;51.366;12.348;2023-03-13T07:28:32;9.80;;;2.27;;
18190;SDS011;47004;51.366;12.348;2023-03-13T07:30:34;10.47;;;2.23;;
18190;SDS011;47004;51.366;12.348;2023-03-13T07:32:36;7.73;;;2.00;;
18190;SDS011;47004;51.366;12.348;2023-03-13T07:34:38;12.90;;;2.20;;
18190;SDS011;47004;51.366;12.348;2023-03-13T07:36:41;9.27;;;1.90;;
18190;SDS011;47004;51.366;12.348;2023-03-13T07:38:46;6.80;;;1.90;;
18190;SDS011;47004;51.366;12.348;2023-03-13T07:40:48;8.10;;;1.80;;
18190;SDS011;47004;51.366;12.348;2023-03-13T07:42:51;11.00;;;2.00;;
18190;SDS011;47004;51.366;12.348;2023-03-13T07:44:53;7.43;;;2.13;;
18190;SDS011;47004;51.366;12.348;2023-03-13T07:46:55;11.20;;;1.67;;
18190;SDS011;47004;51.366;12.348;2023-03-13T07:48:59;9.07;;;1.47;;
18190;SDS011;47004;51.366;12.348;2023-03-13T07:51:01;4.37;;;1.40;;
18190;SDS011;47004;51.366;12.348;2023-03-13T07:53:05;7.47;;;1.27;;
18190;SDS011;47004;51.366;12.348;2023-03-13T07:55:08;6.03;;;1.53;;
18190;SDS011;47004;51.366;12.348;2023-03-13T07:57:12;4.93;;;1.40;;
18190;SDS011;47004;51.366;12.348;2023-03-13T07:59:14;4.50;;;1.10;;
18190;SDS011;47004;51.366;12.348;2023-03-13T08:01:16;4.40;;;1.00;;
18190;SDS011;47004;51.366;12.348;2023-03-13T08:03:20;5.80;;;1.17;;
18190;SDS011;47004;51.366;12.348;2023-03-13T08:05:22;7.80;;;1.30;;
18190;SDS011;47004;51.366;12.348;2023-03-13T08:07:24;5.17;;;1.00;;
18190;SDS011;47004;51.366;12.348;2023-03-13T08:09:30;4.43;;;1.20;;
18190;SDS011;47004;51.366;12.348;2023-03-13T08:11:32;2.20;;;0.87;;
18190;SDS011;47004;51.366;12.348;2023-03-13T08:13:36;3.43;;;0.90;;
18190;SDS011;47004;51.366;12.348;2023-03-13T08:15:38;3.83;;;0.90;;
18190;SDS011;47004;51.366;12.348;2023-03-13T08:17:40;6.00;;;1.20;;
18190;SDS011;47004;51.366;12.348;2023-03-13T08:19:42;3.33;;;1.00;;
18190;SDS011;47004;51.366;12.348;2023-03-13T08:21:44;5.03;;;1.17;;
18190;SDS011;47004;51.366;12.348;2023-03-13T08:23:46;2.50;;;0.80;;
18190;SDS011;47004;51.366;12.348;2023-03-13T08:25:49;1.57;;;0.60;;
18190;SDS011;47004;51.366;12.348;2023-03-13T08:27:51;3.00;;;0.93;;
18190;SDS011;47004;51.366;12.348;2023-03-13T08:29:54;6.40;;;0.80;;
18190;SDS011;47004;51.366;12.348;2023-03-13T08:31:56;3.47;;;0.87;;
18190;SDS011;47004;51.366;12.348;2023-03-13T08:33:58;1.83;;;0.67;;
18190;SDS011;47004;51.366;12.348;2023-03-13T08:36:07;3.13;;;0.80;;
18190;SDS011;47004;51.366;12.348;2023-03-13T08:38:10;3.67;;;0.83;;
18190;SDS011;47004;51.366;12.348;2023-03-13T08:40:12;2.60;;;0.70;;
18190;SDS011;47004;51.366;12.348;2023-03-13T08:42:16;2.67;;;1.10;;
18190;SDS011;47004;51.366;12.348;2023-03-13T08:44:18;2.90;;;1.50;;
18190;SDS011;47004;51.366;12.348;2023-03-13T08:46:20;6.87;;;1.60;;
18190;SDS011;47004;51.366;12.348;2023-03-13T08:48:22;1.70;;;0.93;;
18190;SDS011;47004;51.366;12.348;2023-03-13T08:50:24;3.73;;;0.83;;
18190;SDS011;47004;51.366;12.348;2023-03-13T08:52:26;4.17;;;0.90;;
18190;SDS011;47004;51.366;12.348;2023-03-13T08:54:28;2.50;;;1.00;;
18190;SDS011;47004;51.366;12.348;2023-03-13T08:56:30;2.27;;;0.90;;
18190;SDS011;47004;51.366;12.348;2023-03-13T08:58:35;3.23;;;1.00;;
18190;SDS011;47004;51.366;12.348;2023-03-13T09:00:37;3.00;;;0.77;;
18190;SDS011;47004;51.366;12.348;2023-03-13T09:02:39;1.43;;;0.80;;
18190;SDS011;47004;51.366;12.348;2023-03-13T09:04:41;1.97;;;0.80;;
18190;SDS011;47004;51.366;12.348;2023-03-13T09:06:43;1.40;;;0.70;;
18190;SDS011;47004;51.366;12.348;2023-03-13T09:08:45;6.37;;;1.00;;
18190;SDS011;47004;51.366;12.348;2023-03-13T09:10:47;1.50;;;0.73;;
18190;SDS011;47004;51.366;12.348;2023-03-13T09:12:49;3.30;;;0.93;;
18190;SDS011;47004;51.366;12.348;2023-03-13T09:14:52;2.37;;;0.90;;
18190;SDS011;47004;51.366;12.348;2023-03-13T09:16:54;2.27;;;0.90;;
18190;SDS011;47004;51.366;12.348;2023-03-13T09:18:58;8.13;;;1.17;;
18190;SDS011;47004;51.366;12.348;2023-03-13T09:21:00;2.17;;;0.97;;
18190;SDS011;47004;51.366;12.348;2023-03-13T09:23:03;4.40;;;1.03;;
18190;SDS011;47004;51.366;12.348;2023-03-13T09:25:05;1.57;;;0.70;;
18190;SDS011;47004;51.366;12.348;2023-03-13T09:27:08;2.73;;;1.00;;
18190;SDS011;47004;51.366;12.348;2023-03-13T09:29:09;2.17;;;0.60;;
18190;SDS011;47004;51.366;12.348;2023-03-13T09:31:14;2.10;;;0.80;;
18190;SDS011;47004;51.366;12.348;2023-03-13T09:33:17;6.47;;;0.80;;
18190;SDS011;47004;51.366;12.348;2023-03-13T09:35:22;2.27;;;0.80;;
18190;SDS011;47004;51.366;12.348;2023-03-13T09:37:24;1.90;;;0.50;;
18190;SDS011;47004;51.366;12.348;2023-03-13T09:39:26;1.90;;;0.70;;
18190;SDS011;47004;51.366;12.348;2023-03-13T09:41:33;0.80;;;0.50;;
18190;SDS011;47004;51.366;12.348;2023-03-13T09:43:39;1.53;;;0.50;;
18190;SDS011;47004;51.366;12.348;2023-03-13T09:45:47;1.47;;;0.60;;
18190;SDS011;47004;51.366;12.348;2023-03-13T09:47:55;2.27;;;0.83;;
18190;SDS011;47004;51.366;12.348;2023-03-13T09:50:03;1.77;;;0.67;;
18190;SDS011;47004;51.366;12.348;2023-03-13T09:52:14;1.33;;;0.93;;
18190;SDS011;47004;51.366;12.348;2023-03-13T09:54:24;1.17;;;0.67;;
18190;SDS011;47004;51.366;12.348;2023-03-13T09:56:29;2.77;;;0.83;;
18190;SDS011;47004;51.366;12.348;2023-03-13T09:58:35;2.10;;;0.60;;
18190;SDS011;47004;51.366;12.348;2023-03-13T10:00:42;3.10;;;0.67;;
18190;SDS011;47004;51.366;12.348;2023-03-13T10:02:51;1.57;;;0.70;;
18190;SDS011;47004;51.366;12.348;2023-03-13T10:05:11;0.83;;;0.60;;
18190;SDS011;47004;51.366;12.348;2023-03-13T10:07:17;2.03;;;0.80;;
18190;SDS011;47004;51.366;12.348;2023-03-13T10:09:21;3.43;;;0.70;;
18190;SDS011;47004;51.366;12.348;2023-03-13T10:11:27;0.53;;;0.50;;
18190;SDS011;47004;51.366;12.348;2023-03-13T10:13:36;1.73;;;0.57;;
18190;SDS011;47004;51.366;12.348;2023-03-13T10:15:48;2.03;;;0.53;;
18190;SDS011;47004;51.366;12.348;2023-03-13T10:17:55;2.90;;;0.80;;
18190;SDS011;47004;51.366;12.348;2023-03-13T10:20:01;1.27;;;0.70;;
18190;SDS011;47004;51.366;12.348;2023-03-13T10:22:17;2.57;;;0.50;;
18190;SDS011;47004;51.366;12.348;2023-03-13T10:24:26;1.03;;;0.70;;
18190;SDS011;47004;51.366;12.348;2023-03-13T10:26:34;2.37;;;0.70;;
18190;SDS011;47004;51.366;12.348;2023-03-13T10:28:37;0.90;;;0.60;;
18190;SDS011;47004;51.366;12.348;2023-03-13T10:30:39;2.50;;;0.63;;
18190;SDS011;47004;51.366;12.348;2023-03-13T10:32:47;1.00;;;0.70;;
18190;SDS011;47004;51.366;12.348;2023-03-13T10:34:51;1.73;;;0.53;;
18190;SDS011;47004;51.366;12.348;2023-03-13T10:36:58;3.40;;;0.77;;
18190;SDS011;47004;51.366;12.348;2023-03-13T10:39:01;2.37;;;0.70;;
18190;SDS011;47004;51.366;12.348;2023-03-13T10:41:17;2.60;;;0.77;;
18190;SDS011;47004;51.366;12.348;2023-03-13T10:43:23;0.97;;;0.57;;
18190;SDS011;47004;51.366;12.348;2023-03-13T10:45:28;1.90;;;0.80;;
18190;SDS011;47004;51.366;12.348;2023-03-13T10:47:32;1.60;;;0.53;;
18190;SDS011;47004;51.366;12.348;2023-03-13T10:49:45;1.77;;;0.67;;
18190;SDS011;47004;51.366;12.348;2023-03-13T10:51:50;1.50;;;0.90;;
18190;SDS011;47004;51.366;12.348;2023-03-13T10:53:54;2.17;;;1.00;;
18190;SDS011;47004;51.366;12.348;2023-03-13T10:55:57;1.17;;;0.70;;
18190;SDS011;47004;51.366;12.348;2023-03-13T10:58:03;0.90;;;0.60;;
18190;SDS011;47004;51.366;12.348;2023-03-13T11:00:22;5.10;;;0.60;;
18190;SDS011;47004;51.366;12.348;2023-03-13T11:02:33;1.47;;;0.70;;
18190;SDS011;47004;51.366;12.348;2023-03-13T11:04:40;1.50;;;0.90;;
18190;SDS011;47004;51.366;12.348;2023-03-13T11:06:42;1.53;;;0.83;;
18190;SDS011;47004;51.366;12.348;2023-03-13T11:09:04;1.67;;;0.90;;
18190;SDS011;47004;51.366;12.348;2023-03-13T11:11:16;2.60;;;0.80;;
18190;SDS011;47004;51.366;12.348;2023-03-13T11:13:25;0.87;;;0.50;;
18190;SDS011;47004;51.366;12.348;2023-03-13T11:15:30;1.23;;;0.73;;
18190;SDS011;47004;51.366;12.348;2023-03-13T11:17:36;1.70;;;0.70;;
18190;SDS011;47004;51.366;12.348;2023-03-13T11:19:43;2.30;;;0.97;;
18190;SDS011;47004;51.366;12.348;2023-03-13T11:21:56;0.60;;;0.53;;
18190;SDS011;47004;51.366;12.348;2023-03-13T11:24:09;1.20;;;0.90;;
18190;SDS011;47004;51.366;12.348;2023-03-13T11:26:17;1.13;;;0.50;;
18190;SDS011;47004;51.366;12.348;2023-03-13T11:28:27;1.43;;;0.70;;
18190;SDS011;47004;51.366;12.348;2023-03-13T11:30:44;1.10;;;0.50;;
18190;SDS011;47004;51.366;12.348;2023-03-13T11:32:59;2.47;;;0.80;;
18190;SDS011;47004;51.366;12.348;2023-03-13T11:35:05;1.87;;;0.90;;
18190;SDS011;47004;51.366;12.348;2023-03-13T11:37:16;1.53;;;0.80;;
18190;SDS011;47004;51.366;12.348;2023-03-13T11:39:33;2.40;;;1.10;;
18190;SDS011;47004;51.366;12.348;2023-03-13T11:41:51;4.57;;;1.00;;
18190;SDS011;47004;51.366;12.348;2023-03-13T11:44:02;2.03;;;0.80;;
18190;SDS011;47004;51.366;12.348;2023-03-13T11:46:20;1.00;;;0.60;;
18190;SDS011;47004;51.366;12.348;2023-03-13T11:48:39;1.93;;;0.80;;
18190;SDS011;47004;51.366;12.348;2023-03-13T11:50:57;0.60;;;0.50;;
18190;SDS011;47004;51.366;12.348;2023-03-13T11:53:11;1.90;;;0.80;;
18190;SDS011;47004;51.366;12.348;2023-03-13T11:55:34;0.87;;;0.60;;
18190;SDS011;47004;51.366;12.348;2023-03-13T11:57:43;1.97;;;0.80;;
18190;SDS011;47004;51.366;12.348;2023-03-13T11:59:54;2.20;;;0.90;;
18190;SDS011;47004;51.366;12.348;2023-03-13T12:02:13;1.20;;;0.80;;
18190;SDS011;47004;51.366;12.348;2023-03-13T12:04:21;1.77;;;0.70;;
18190;SDS011;47004;51.366;12.348;2023-03-13T12:06:28;8.67;;;1.20;;
18190;SDS011;47004;51.366;12.348;2023-03-13T12:08:33;2.47;;;1.00;;
18190;SDS011;47004;51.366;12.348;2023-03-13T12:10:42;1.93;;;0.60;;
18190;SDS011;47004;51.366;12.348;2023-03-13T12:12:48;1.77;;;0.70;;